Water Levels and Discharges  |  Reservoirs  |  Precipitation  |  Water quality Last site revision 21.06.2024 02:31:44
             
Water Levels and Discharges CAUTION: All data are without validation 21.06.2024 02:36:11
Any delay data CHMI stations is caused by the delay of data transfer between CHMI and the watershed, current data are on www.chmi.cz
All facilities Závod Karlovy Vary Závod Chomutov Závod Terezín
Measurement summary  21.06.2024All facilities
Station River Graph Last measured
Qa
Q355
Remark
water levelDischarge
[cm] ([h])[m3.s-1] ([h])[m3.s-1][m3.s-1]
 Jez Terezín dolní hladina  Ohře 145.04 * ( 02:20 )
 Jez Terezín horní hladina  Ohře 147.74 * ( 02:20 )
 LG Benešov nad Ploučnicí  Ploučnice 78 ( 02:20 ) 4.446 ( 02:20 ) 7.979 2.850
 LG Bílina (ČD)  Bílina 75 ( 02:20 ) 1.919 ( 02:20 ) 3.300 1.580
 LG Bílý Potok - Záluží  Bílý potok 23 ( 02:20 ) 0.091 ( 02:20 ) 0.280 0.040
 LG Březová  Teplá 106 ( 02:20 ) 1.098 ( 02:20 ) 2.730 0.230 Z důvodu úpravy měrného profilu byla dne 14.6.2023 posunuta nula vodočtu o 1 metr níže. Vodní stavy pro jednotlivé stupně povodňové aktivity byly přepočteny dle následujících průtoků -> I. SPA - 30 m3/s; II. SPA 50 m3/s; III. SPA - 70 m3/s.
 LG Brozany  Ohře 89 ( 02:20 ) 27.74 ( 02:20 ) 37.90 5.300
 LG Česká Lípa  Ploučnice 18 ( 02:20 ) 2.441 ( 02:20 ) 4.900 1.890
 LG Český Jiřetín  Flájský potok-HVT č. 152, 153, 163 39 ( 02:20 ) 0.100 ( 02:20 ) 0.462 0.088
 LG Cheb  Ohře 56 ( 02:20 ) 4.240 ( 02:20 ) 6.860 0.950
 LG Chomutov (MÚ)  Chomutovka 7 ( 02:20 ) 0.297 ( 02:20 ) 0.670 0.070
 LG Chřibská - odtok  Chřibská Kamenice 12 ( 02:20 ) 0.021 ( 02:20 ) 0.074 0.019
 LG Citice  Ohře 90 ( 02:20 ) 8.618 ( 02:20 ) 14.40 3.410
 LG Drahovice  Ohře 60 ( 02:20 ) 16.61 ( 02:20 ) 25.20 6.220
 LG Hačka - pod odlehčením  Hačka 11 ( 02:20 ) 0.009 ( 02:20 ) 0.010
 LG Horka  Libocký potok 42 ( 02:20 ) 0.842 ( 02:20 ) 0.559 0.087
 LG III. Mlýn  Chomutovka 22 ( 02:20 ) 0.196 ( 02:20 ) 0.540 0.050
 LG Janov - odtok  Loupnice 7 ( 02:20 ) 0.065 ( 02:20 ) 0.130 0.014
 LG Jánský most  Teplá 11 ( 02:20 ) 1.129 ( 02:20 ) 3.080 0.290
 LG Jesenice  Odrava-HVT č. 37 55 ( 02:20 ) 1.320 ( 02:20 ) 3.530 0.550
 LG Jez Jiřetín - odtok  Bílina 0.317 ( 02:20 ) 1.438 0.150 SPA jsou stanovena pouze na průtoky. I. SPA -> 8 m3/s; II. SPA -> 23 m3/s, III. SPA -> 40 m3/s. Měření probíhá na základě Dopplerova jevu pomocí měření rychlostního pole průtočného profilu.
 LG Jirkov - odtok  Bílina 22 ( 02:20 ) 0.147 ( 02:20 ) 0.336 0.035
 LG Klášterec nad Ohří  Ohře 99 ( 02:20 ) 22.60 ( 02:20 ) 29.00 4.400
 LG Kraslice  Svatava-HVT č. 220 18 ( 02:20 ) 1.031 ( 02:20 ) 2.150 0.270
 LG Kryry  Blšanka 21 ( 02:20 ) 0.132 ( 02:20 ) 0.553 0.064 Měrný profil je ovlivněn ledovými jevy. Ukazuje nepřesné průtoky.
 LG Louny  Ohře 216 ( 02:20 ) 32.08 ( 02:20 ) 37.30 11.10
 LG Mimoň  Ploučnice 20 ( 02:20 ) 0.950 ( 02:20 ) 2.300 0.810
 LG Nové Hamry I.  Rolava 21 ( 02:20 ) 0.642 ( 02:20 ) 1.280 0.350
 LG Ostrov nad Ohří  Bystřice 35 ( 02:20 ) 0.981 ( 02:20 ) 2.060 0.230
 LG Pertoltice  Panenský potok 21 ( 02:20 ) 0.500 ( 02:20 ) 1.080 0.310
 LG Podhora  Teplá 22 ( 02:20 ) 0.038 ( 02:20 ) 0.236 0.023
 LG Přísečnice  Přísečnický potok 10 ( 02:20 ) 0.110 ( 02:20 ) 1.010 0.113
 LG Srbská Kamenice  Kamenice 29 ( 02:20 ) 0.427 ( 02:20 ) 1.080 0.390
 LG Stanovice  Lomnický potok 16 ( 02:20 ) 0.092 ( 02:20 ) 0.560 0.050
 LG Stará Role  Rolava 36 ( 02:20 ) 1.282 ( 02:20 ) 2.500 0.540
 LG Stranná  Ohře 56 ( 02:20 ) 31.32 ( 02:20 ) 30.70 4.600
 LG Stráž pod Ralskem - město  Ploučnice 37 ( 02:20 ) 0.467 ( 02:20 ) 1.000 0.340
 LG Svatava  Svatava-HVT č. 220 33 ( 02:20 ) 1.887 ( 02:20 ) 4.510 0.952
 LG Teplička  Teplá 33 ( 02:20 ) 0.850 ( 02:20 ) 2.470 0.220
 LG Trmice  Bílina 101 ( 02:20 ) 3.285 ( 02:20 ) 7.240 2.480
 LG Újezd  Bílina 32 ( 02:20 ) 0.758 ( 02:20 ) 0.860 0.090
 LG Varnsdorf  Mandava - HVT č.14 9 ( 02:20 ) 0.167 ( 02:20 ) 0.800 0.214
 LG Vědlice  Úštěcký potok 17 ( 02:20 ) 0.089 ( 02:20 ) 0.330 0.078 Měrný profil je ovlivněn ledovými jevy. Ukazuje nepřesné průtoky.
 LG Vilémov  Liboc 25 ( 02:20 ) 0.215 ( 02:20 ) 0.160
 LG Všechlapy - odtok  Bouřlivec 44 ( 02:20 ) 0.384 ( 02:20 ) 0.978 0.156
 LG Zahrádky  Robečský p. (Mlýnský) 45 ( 02:20 ) 0.306 ( 02:20 ) 1.200 0.240
 LG Zákupy  Svitávka 48 ( 02:20 ) 0.503 ( 02:20 ) 1.000 0.285
 LG Žatec  Ohře 48 ( 02:20 ) 30.95 ( 02:20 ) 32.30 4.800
* [m asl]
Qaaverage discharge
Q355average daily discharge reached or exceeded 355 days a year
  Povodí Ohře, státní podnik © 2024 The system uses also data from measuring stations of   Czech Hydrometeorological Institute © 2024 Application developed by   MGE Data s.r.o. © 1996 - 2015